Pagrindinis puslapis
METAR-TAF:

METAR-TAF

Oro uostai :

Damaskas, Sirija

platuma: 33-25N, ilguma: 036-31E, Aukštis: 608 m

Dabartinis oras

Ataskaita buvo paskelbta 58 minutes, ne 21:00 UTC
Vėjas 3 kt iš Pietų
Temperatūra 9°C
Drėgmė 87%
Slėgis 1017 hPa
Matomumas: 6000 m
Mažai debesys ne aukštis 3000 ft

METAR: OSDI 102100Z 19003KT 6000 FEW030 09/07 Q1017

Laikas: 23:58 (21:58 UTC)

Prognozė

Prognozė galioja nuo 10 metu 18 UTC su 11 metu 24 UTC
Vėjas 3 kt nuo kintamojo kryptimis
Matomumas: 8000 m
Tapsmas
nuo 10 metu 18 UTC su 10 metu 20 UTC
Matomumas: 3000 m
rūkana
Laikinai
nuo 10 metu 21 UTC su 11 metu 07 UTC
Matomumas: 0200 m
Išsisklaidę debesys ne aukštis 700 ft
rūkas
Tapsmas
nuo 11 metu 09 UTC su 11 metu 11 UTC
Vėjas 10 kt iš Pietvakarių
Matomumas: 7000 m
Mažai debesys ne aukštis 3000 ft

TAF: OSDI 1018/1124 VRB03KT 8000 BECMG 1018/1020 3000 BR TEMPO 1021/1107 0200 FG SCT007 BECMG 1109/1111 22010KT 7000 FEW030

Orai ataskaitas ir orų prognozės (METAR, TAF).

turimą stotys yra geltonos ir raudonos taškus žemėlapyje.

Perkelti pele per norėdami pamatyti stoties vardą.

Tada spustelėkite, norėdami matyti oro stebėjimo ir prognozės.

Norėdami pakeisti žemėlapį: spustelėkite ant žalios mygtukų su juodo kryžiaus žemyn,; žalią mygtuką su brūkšneliu, jei norite nutolinti; arba žalių rodyklių gretimoms žemėlapius.


METAR-TAF: